sensor_id;sensor_type;location;lat;lon;timestamp;P1;durP1;ratioP1;P2;durP2;ratioP2
58360;SDS011;44164;44.954;10.068;2023-08-17T00:02:11;4.60;;;4.18;;
58360;SDS011;44164;44.954;10.068;2023-08-17T00:04:38;4.82;;;4.40;;
58360;SDS011;44164;44.954;10.068;2023-08-17T00:07:05;4.60;;;4.20;;
58360;SDS011;44164;44.954;10.068;2023-08-17T00:09:32;4.78;;;4.18;;
58360;SDS011;44164;44.954;10.068;2023-08-17T00:11:58;4.60;;;4.20;;
58360;SDS011;44164;44.954;10.068;2023-08-17T00:14:24;5.00;;;4.60;;
58360;SDS011;44164;44.954;10.068;2023-08-17T00:16:51;5.05;;;4.15;;
58360;SDS011;44164;44.954;10.068;2023-08-17T00:19:17;4.85;;;4.35;;
58360;SDS011;44164;44.954;10.068;2023-08-17T00:21:44;4.70;;;4.15;;
58360;SDS011;44164;44.954;10.068;2023-08-17T00:24:10;5.47;;;4.97;;
58360;SDS011;44164;44.954;10.068;2023-08-17T00:26:37;4.53;;;4.13;;
58360;SDS011;44164;44.954;10.068;2023-08-17T00:29:03;4.00;;;3.70;;
58360;SDS011;44164;44.954;10.068;2023-08-17T00:31:29;4.53;;;4.13;;
58360;SDS011;44164;44.954;10.068;2023-08-17T00:33:55;4.22;;;3.83;;
58360;SDS011;44164;44.954;10.068;2023-08-17T00:36:21;4.90;;;4.50;;
58360;SDS011;44164;44.954;10.068;2023-08-17T00:38:47;4.43;;;4.03;;
58360;SDS011;44164;44.954;10.068;2023-08-17T00:41:14;4.63;;;4.22;;
58360;SDS011;44164;44.954;10.068;2023-08-17T00:43:40;4.43;;;4.03;;
58360;SDS011;44164;44.954;10.068;2023-08-17T00:46:06;4.82;;;4.32;;
58360;SDS011;44164;44.954;10.068;2023-08-17T00:48:33;4.70;;;4.30;;
58360;SDS011;44164;44.954;10.068;2023-08-17T00:50:59;4.78;;;4.38;;
58360;SDS011;44164;44.954;10.068;2023-08-17T00:53:26;4.47;;;4.00;;
58360;SDS011;44164;44.954;10.068;2023-08-17T00:55:53;5.35;;;4.20;;
58360;SDS011;44164;44.954;10.068;2023-08-17T00:58:22;4.43;;;3.95;;
58360;SDS011;44164;44.954;10.068;2023-08-17T01:00:48;4.40;;;4.00;;
58360;SDS011;44164;44.954;10.068;2023-08-17T01:03:15;4.88;;;4.45;;
58360;SDS011;44164;44.954;10.068;2023-08-17T01:05:41;4.35;;;3.95;;
58360;SDS011;44164;44.954;10.068;2023-08-17T01:08:07;4.88;;;4.32;;
58360;SDS011;44164;44.954;10.068;2023-08-17T01:10:46;5.57;;;4.50;;
58360;SDS011;44164;44.954;10.068;2023-08-17T01:13:38;4.78;;;4.28;;
58360;SDS011;44164;44.954;10.068;2023-08-17T01:16:11;4.95;;;4.45;;
58360;SDS011;44164;44.954;10.068;2023-08-17T01:18:41;5.13;;;4.72;;
58360;SDS011;44164;44.954;10.068;2023-08-17T01:21:08;4.85;;;4.45;;
58360;SDS011;44164;44.954;10.068;2023-08-17T01:26:02;4.40;;;4.00;;
58360;SDS011;44164;44.954;10.068;2023-08-17T01:28:28;5.15;;;4.65;;
58360;SDS011;44164;44.954;10.068;2023-08-17T01:31:02;5.15;;;4.28;;
58360;SDS011;44164;44.954;10.068;2023-08-17T01:33:35;4.55;;;4.15;;
58360;SDS011;44164;44.954;10.068;2023-08-17T01:36:13;4.82;;;4.43;;
58360;SDS011;44164;44.954;10.068;2023-08-17T01:38:48;4.75;;;4.35;;
58360;SDS011;44164;44.954;10.068;2023-08-17T01:41:17;4.53;;;4.13;;
58360;SDS011;44164;44.954;10.068;2023-08-17T01:43:44;5.38;;;4.88;;
58360;SDS011;44164;44.954;10.068;2023-08-17T01:46:14;5.03;;;4.55;;
58360;SDS011;44164;44.954;10.068;2023-08-17T01:48:41;5.07;;;4.53;;
58360;SDS011;44164;44.954;10.068;2023-08-17T01:51:08;4.78;;;4.28;;
58360;SDS011;44164;44.954;10.068;2023-08-17T01:53:35;5.22;;;4.72;;
58360;SDS011;44164;44.954;10.068;2023-08-17T01:56:01;4.88;;;4.40;;
58360;SDS011;44164;44.954;10.068;2023-08-17T01:58:28;5.57;;;5.07;;
58360;SDS011;44164;44.954;10.068;2023-08-17T02:00:54;5.45;;;4.95;;
58360;SDS011;44164;44.954;10.068;2023-08-17T02:03:20;5.25;;;4.75;;
58360;SDS011;44164;44.954;10.068;2023-08-17T02:05:47;4.80;;;4.40;;
58360;SDS011;44164;44.954;10.068;2023-08-17T02:08:14;5.47;;;4.97;;
58360;SDS011;44164;44.954;10.068;2023-08-17T02:10:41;5.10;;;4.60;;
58360;SDS011;44164;44.954;10.068;2023-08-17T02:13:07;4.65;;;4.25;;
58360;SDS011;44164;44.954;10.068;2023-08-17T02:15:37;5.18;;;4.78;;
58360;SDS011;44164;44.954;10.068;2023-08-17T02:18:05;5.60;;;5.10;;
58360;SDS011;44164;44.954;10.068;2023-08-17T02:20:31;5.72;;;5.15;;
58360;SDS011;44164;44.954;10.068;2023-08-17T02:22:57;4.80;;;4.30;;
58360;SDS011;44164;44.954;10.068;2023-08-17T02:25:23;5.63;;;5.13;;
58360;SDS011;44164;44.954;10.068;2023-08-17T02:27:51;4.93;;;4.50;;
58360;SDS011;44164;44.954;10.068;2023-08-17T02:30:17;4.45;;;4.05;;
58360;SDS011;44164;44.954;10.068;2023-08-17T02:32:43;5.32;;;4.88;;
58360;SDS011;44164;44.954;10.068;2023-08-17T02:35:09;5.30;;;4.80;;
58360;SDS011;44164;44.954;10.068;2023-08-17T02:37:35;4.55;;;4.15;;
58360;SDS011;44164;44.954;10.068;2023-08-17T02:40:02;5.32;;;4.80;;
58360;SDS011;44164;44.954;10.068;2023-08-17T02:42:30;4.97;;;4.57;;
58360;SDS011;44164;44.954;10.068;2023-08-17T02:44:56;4.85;;;4.45;;
58360;SDS011;44164;44.954;10.068;2023-08-17T02:47:22;5.50;;;5.00;;
58360;SDS011;44164;44.954;10.068;2023-08-17T02:49:48;5.63;;;5.03;;
58360;SDS011;44164;44.954;10.068;2023-08-17T02:52:15;5.37;;;4.90;;
58360;SDS011;44164;44.954;10.068;2023-08-17T02:54:41;5.55;;;5.05;;
58360;SDS011;44164;44.954;10.068;2023-08-17T02:57:07;5.03;;;4.53;;
58360;SDS011;44164;44.954;10.068;2023-08-17T02:59:33;5.25;;;4.75;;
58360;SDS011;44164;44.954;10.068;2023-08-17T03:01:59;5.28;;;4.78;;
58360;SDS011;44164;44.954;10.068;2023-08-17T03:04:26;5.72;;;5.22;;
58360;SDS011;44164;44.954;10.068;2023-08-17T03:06:52;5.60;;;5.03;;
58360;SDS011;44164;44.954;10.068;2023-08-17T03:09:18;4.97;;;4.57;;
58360;SDS011;44164;44.954;10.068;2023-08-17T03:11:44;6.10;;;5.13;;
58360;SDS011;44164;44.954;10.068;2023-08-17T03:14:11;5.18;;;4.68;;
58360;SDS011;44164;44.954;10.068;2023-08-17T03:16:37;5.20;;;4.70;;
58360;SDS011;44164;44.954;10.068;2023-08-17T03:19:03;5.25;;;4.85;;
58360;SDS011;44164;44.954;10.068;2023-08-17T03:21:29;5.20;;;4.70;;
58360;SDS011;44164;44.954;10.068;2023-08-17T03:23:55;5.13;;;4.63;;
58360;SDS011;44164;44.954;10.068;2023-08-17T03:26:21;4.78;;;4.38;;
58360;SDS011;44164;44.954;10.068;2023-08-17T03:28:49;5.00;;;4.43;;
58360;SDS011;44164;44.954;10.068;2023-08-17T03:31:15;5.00;;;4.57;;
58360;SDS011;44164;44.954;10.068;2023-08-17T03:33:41;5.22;;;4.70;;
58360;SDS011;44164;44.954;10.068;2023-08-17T03:36:07;5.55;;;5.03;;
58360;SDS011;44164;44.954;10.068;2023-08-17T03:38:33;7.35;;;4.82;;
58360;SDS011;44164;44.954;10.068;2023-08-17T03:41:00;5.30;;;4.80;;
58360;SDS011;44164;44.954;10.068;2023-08-17T03:43:27;4.55;;;4.15;;
58360;SDS011;44164;44.954;10.068;2023-08-17T03:45:53;5.72;;;5.13;;
58360;SDS011;44164;44.954;10.068;2023-08-17T03:48:19;5.35;;;4.82;;
58360;SDS011;44164;44.954;10.068;2023-08-17T03:50:47;5.10;;;4.70;;
58360;SDS011;44164;44.954;10.068;2023-08-17T03:53:13;5.35;;;4.85;;
58360;SDS011;44164;44.954;10.068;2023-08-17T03:55:42;4.80;;;4.28;;
58360;SDS011;44164;44.954;10.068;2023-08-17T03:58:11;4.72;;;4.32;;
58360;SDS011;44164;44.954;10.068;2023-08-17T04:00:37;5.18;;;4.55;;
58360;SDS011;44164;44.954;10.068;2023-08-17T04:05:31;4.90;;;4.43;;
58360;SDS011;44164;44.954;10.068;2023-08-17T04:07:59;5.47;;;4.97;;
58360;SDS011;44164;44.954;10.068;2023-08-17T04:10:29;5.20;;;4.70;;
58360;SDS011;44164;44.954;10.068;2023-08-17T04:12:56;5.47;;;4.97;;
58360;SDS011;44164;44.954;10.068;2023-08-17T04:15:22;5.28;;;4.78;;
58360;SDS011;44164;44.954;10.068;2023-08-17T04:17:48;4.65;;;4.25;;
58360;SDS011;44164;44.954;10.068;2023-08-17T04:20:15;5.03;;;4.53;;
58360;SDS011;44164;44.954;10.068;2023-08-17T04:22:41;5.63;;;5.13;;
58360;SDS011;44164;44.954;10.068;2023-08-17T04:25:07;5.38;;;4.88;;
58360;SDS011;44164;44.954;10.068;2023-08-17T04:27:33;5.15;;;4.63;;
58360;SDS011;44164;44.954;10.068;2023-08-17T04:30:00;4.88;;;4.43;;
58360;SDS011;44164;44.954;10.068;2023-08-17T04:32:27;5.03;;;4.63;;
58360;SDS011;44164;44.954;10.068;2023-08-17T04:34:53;4.55;;;4.15;;
58360;SDS011;44164;44.954;10.068;2023-08-17T04:37:20;4.60;;;4.20;;
58360;SDS011;44164;44.954;10.068;2023-08-17T04:39:46;4.85;;;4.45;;
58360;SDS011;44164;44.954;10.068;2023-08-17T04:42:18;5.00;;;4.60;;
58360;SDS011;44164;44.954;10.068;2023-08-17T04:44:45;5.10;;;4.53;;
58360;SDS011;44164;44.954;10.068;2023-08-17T04:47:12;6.57;;;4.70;;
58360;SDS011;44164;44.954;10.068;2023-08-17T04:49:38;4.43;;;4.03;;
58360;SDS011;44164;44.954;10.068;2023-08-17T04:52:05;4.97;;;4.57;;
58360;SDS011;44164;44.954;10.068;2023-08-17T04:54:31;4.30;;;3.90;;
58360;SDS011;44164;44.954;10.068;2023-08-17T04:56:57;4.68;;;4.28;;
58360;SDS011;44164;44.954;10.068;2023-08-17T04:59:24;4.53;;;4.13;;
58360;SDS011;44164;44.954;10.068;2023-08-17T05:01:51;4.53;;;4.13;;
58360;SDS011;44164;44.954;10.068;2023-08-17T05:04:20;4.38;;;3.97;;
58360;SDS011;44164;44.954;10.068;2023-08-17T05:06:46;4.60;;;4.20;;
58360;SDS011;44164;44.954;10.068;2023-08-17T05:09:12;4.93;;;4.53;;
58360;SDS011;44164;44.954;10.068;2023-08-17T05:14:06;4.80;;;4.40;;
58360;SDS011;44164;44.954;10.068;2023-08-17T05:16:32;4.78;;;4.30;;
58360;SDS011;44164;44.954;10.068;2023-08-17T05:18:58;4.97;;;4.57;;
58360;SDS011;44164;44.954;10.068;2023-08-17T05:21:26;4.63;;;4.22;;
58360;SDS011;44164;44.954;10.068;2023-08-17T05:23:52;4.13;;;3.72;;
58360;SDS011;44164;44.954;10.068;2023-08-17T05:26:18;4.40;;;3.83;;
58360;SDS011;44164;44.954;10.068;2023-08-17T05:28:45;4.35;;;3.95;;
58360;SDS011;44164;44.954;10.068;2023-08-17T05:31:11;4.97;;;4.57;;
58360;SDS011;44164;44.954;10.068;2023-08-17T05:33:41;4.57;;;4.18;;
58360;SDS011;44164;44.954;10.068;2023-08-17T05:36:07;4.70;;;4.30;;
58360;SDS011;44164;44.954;10.068;2023-08-17T05:38:34;4.30;;;4.00;;
58360;SDS011;44164;44.954;10.068;2023-08-17T05:41:00;4.72;;;4.32;;
58360;SDS011;44164;44.954;10.068;2023-08-17T05:43:27;4.50;;;4.10;;
58360;SDS011;44164;44.954;10.068;2023-08-17T05:45:56;4.60;;;4.20;;
58360;SDS011;44164;44.954;10.068;2023-08-17T05:48:23;4.40;;;4.00;;
58360;SDS011;44164;44.954;10.068;2023-08-17T05:50:49;4.10;;;3.70;;
58360;SDS011;44164;44.954;10.068;2023-08-17T05:53:15;4.15;;;3.85;;
58360;SDS011;44164;44.954;10.068;2023-08-17T05:55:42;7.22;;;4.93;;
58360;SDS011;44164;44.954;10.068;2023-08-17T05:58:08;6.93;;;4.65;;
58360;SDS011;44164;44.954;10.068;2023-08-17T06:00:34;8.98;;;4.85;;
58360;SDS011;44164;44.954;10.068;2023-08-17T06:03:01;7.40;;;4.60;;
58360;SDS011;44164;44.954;10.068;2023-08-17T06:05:27;7.57;;;4.72;;
58360;SDS011;44164;44.954;10.068;2023-08-17T06:07:54;6.53;;;4.95;;
58360;SDS011;44164;44.954;10.068;2023-08-17T06:10:21;6.77;;;4.00;;
58360;SDS011;44164;44.954;10.068;2023-08-17T06:12:54;6.65;;;4.63;;
58360;SDS011;44164;44.954;10.068;2023-08-17T06:15:21;7.00;;;3.72;;
58360;SDS011;44164;44.954;10.068;2023-08-17T06:17:48;7.40;;;4.07;;
58360;SDS011;44164;44.954;10.068;2023-08-17T06:20:15;5.10;;;3.83;;
58360;SDS011;44164;44.954;10.068;2023-08-17T06:22:42;5.55;;;3.58;;
58360;SDS011;44164;44.954;10.068;2023-08-17T06:25:08;5.13;;;4.07;;
58360;SDS011;44164;44.954;10.068;2023-08-17T06:27:35;5.85;;;3.80;;
58360;SDS011;44164;44.954;10.068;2023-08-17T06:30:04;5.57;;;3.60;;
58360;SDS011;44164;44.954;10.068;2023-08-17T06:32:31;4.57;;;3.97;;
58360;SDS011;44164;44.954;10.068;2023-08-17T06:34:57;6.60;;;4.10;;
58360;SDS011;44164;44.954;10.068;2023-08-17T06:37:23;4.50;;;3.40;;
58360;SDS011;44164;44.954;10.068;2023-08-17T06:39:49;4.80;;;3.67;;
58360;SDS011;44164;44.954;10.068;2023-08-17T06:42:15;6.25;;;3.60;;
58360;SDS011;44164;44.954;10.068;2023-08-17T06:44:42;7.65;;;4.18;;
58360;SDS011;44164;44.954;10.068;2023-08-17T06:47:08;5.90;;;3.60;;
58360;SDS011;44164;44.954;10.068;2023-08-17T06:49:36;5.88;;;3.95;;
58360;SDS011;44164;44.954;10.068;2023-08-17T06:52:02;7.43;;;3.45;;
58360;SDS011;44164;44.954;10.068;2023-08-17T06:54:28;4.13;;;3.70;;
58360;SDS011;44164;44.954;10.068;2023-08-17T06:56:54;7.00;;;3.75;;
58360;SDS011;44164;44.954;10.068;2023-08-17T06:59:20;5.57;;;3.65;;
58360;SDS011;44164;44.954;10.068;2023-08-17T07:01:48;3.95;;;3.28;;
58360;SDS011;44164;44.954;10.068;2023-08-17T07:04:14;4.72;;;3.40;;
58360;SDS011;44164;44.954;10.068;2023-08-17T07:06:40;3.90;;;3.35;;
58360;SDS011;44164;44.954;10.068;2023-08-17T07:09:06;8.27;;;3.78;;
58360;SDS011;44164;44.954;10.068;2023-08-17T07:11:32;5.63;;;3.67;;
58360;SDS011;44164;44.954;10.068;2023-08-17T07:13:58;9.52;;;3.78;;
58360;SDS011;44164;44.954;10.068;2023-08-17T07:16:25;3.90;;;3.35;;
58360;SDS011;44164;44.954;10.068;2023-08-17T07:18:51;3.70;;;3.30;;
58360;SDS011;44164;44.954;10.068;2023-08-17T07:21:17;6.05;;;3.40;;
58360;SDS011;44164;44.954;10.068;2023-08-17T07:23:44;6.03;;;4.00;;
58360;SDS011;44164;44.954;10.068;2023-08-17T07:26:10;4.93;;;3.83;;
58360;SDS011;44164;44.954;10.068;2023-08-17T07:28:36;6.50;;;3.17;;
58360;SDS011;44164;44.954;10.068;2023-08-17T07:31:03;4.28;;;3.40;;
58360;SDS011;44164;44.954;10.068;2023-08-17T07:33:29;7.50;;;3.90;;
58360;SDS011;44164;44.954;10.068;2023-08-17T07:35:55;5.93;;;3.90;;
58360;SDS011;44164;44.954;10.068;2023-08-17T07:38:24;4.57;;;3.35;;
58360;SDS011;44164;44.954;10.068;2023-08-17T07:40:50;8.10;;;3.65;;
58360;SDS011;44164;44.954;10.068;2023-08-17T07:43:16;4.97;;;3.90;;
58360;SDS011;44164;44.954;10.068;2023-08-17T07:45:42;4.85;;;3.08;;
58360;SDS011;44164;44.954;10.068;2023-08-17T07:48:08;3.90;;;3.50;;
58360;SDS011;44164;44.954;10.068;2023-08-17T07:50:34;4.15;;;3.50;;
58360;SDS011;44164;44.954;10.068;2023-08-17T07:53:00;9.98;;;3.60;;
58360;SDS011;44164;44.954;10.068;2023-08-17T07:55:26;5.18;;;3.55;;
58360;SDS011;44164;44.954;10.068;2023-08-17T07:57:52;7.00;;;3.75;;
58360;SDS011;44164;44.954;10.068;2023-08-17T08:00:19;6.85;;;3.83;;
58360;SDS011;44164;44.954;10.068;2023-08-17T08:02:45;5.93;;;3.40;;
58360;SDS011;44164;44.954;10.068;2023-08-17T08:05:12;3.87;;;3.20;;
58360;SDS011;44164;44.954;10.068;2023-08-17T08:07:39;8.35;;;3.67;;
58360;SDS011;44164;44.954;10.068;2023-08-17T08:10:06;6.18;;;3.58;;
58360;SDS011;44164;44.954;10.068;2023-08-17T08:12:33;5.57;;;3.58;;
58360;SDS011;44164;44.954;10.068;2023-08-17T08:14:59;4.18;;;3.20;;
58360;SDS011;44164;44.954;10.068;2023-08-17T08:17:25;4.43;;;3.50;;
58360;SDS011;44164;44.954;10.068;2023-08-17T08:19:52;3.85;;;3.30;;
58360;SDS011;44164;44.954;10.068;2023-08-17T08:22:18;4.53;;;3.70;;
58360;SDS011;44164;44.954;10.068;2023-08-17T08:24:44;3.97;;;3.45;;
58360;SDS011;44164;44.954;10.068;2023-08-17T08:27:10;4.80;;;3.60;;
58360;SDS011;44164;44.954;10.068;2023-08-17T08:29:36;6.10;;;3.55;;
58360;SDS011;44164;44.954;10.068;2023-08-17T08:32:03;4.90;;;3.28;;
58360;SDS011;44164;44.954;10.068;2023-08-17T08:34:29;6.65;;;3.45;;
58360;SDS011;44164;44.954;10.068;2023-08-17T08:36:56;3.92;;;3.17;;
58360;SDS011;44164;44.954;10.068;2023-08-17T08:39:24;8.77;;;3.53;;
58360;SDS011;44164;44.954;10.068;2023-08-17T08:41:51;4.30;;;3.08;;
58360;SDS011;44164;44.954;10.068;2023-08-17T08:44:17;5.28;;;3.13;;
58360;SDS011;44164;44.954;10.068;2023-08-17T08:46:44;4.28;;;3.45;;
58360;SDS011;44164;44.954;10.068;2023-08-17T08:49:11;3.47;;;2.88;;
58360;SDS011;44164;44.954;10.068;2023-08-17T08:51:38;7.93;;;3.23;;
58360;SDS011;44164;44.954;10.068;2023-08-17T08:54:08;4.55;;;3.20;;
58360;SDS011;44164;44.954;10.068;2023-08-17T08:56:38;4.53;;;3.22;;
58360;SDS011;44164;44.954;10.068;2023-08-17T08:59:07;6.43;;;3.38;;
58360;SDS011;44164;44.954;10.068;2023-08-17T09:01:34;4.03;;;2.90;;
58360;SDS011;44164;44.954;10.068;2023-08-17T09:04:00;4.53;;;3.22;;
58360;SDS011;44164;44.954;10.068;2023-08-17T09:06:31;9.48;;;3.30;;
58360;SDS011;44164;44.954;10.068;2023-08-17T09:08:58;4.45;;;2.80;;
58360;SDS011;44164;44.954;10.068;2023-08-17T09:11:25;5.43;;;2.65;;
58360;SDS011;44164;44.954;10.068;2023-08-17T09:13:52;3.53;;;3.22;;
58360;SDS011;44164;44.954;10.068;2023-08-17T09:16:18;4.55;;;3.00;;
58360;SDS011;44164;44.954;10.068;2023-08-17T09:18:45;5.95;;;3.50;;
58360;SDS011;44164;44.954;10.068;2023-08-17T09:21:20;3.45;;;2.83;;
58360;SDS011;44164;44.954;10.068;2023-08-17T09:23:52;5.25;;;3.22;;
58360;SDS011;44164;44.954;10.068;2023-08-17T09:26:19;5.43;;;2.83;;
58360;SDS011;44164;44.954;10.068;2023-08-17T09:28:49;4.85;;;2.80;;
58360;SDS011;44164;44.954;10.068;2023-08-17T09:31:20;3.92;;;2.90;;
58360;SDS011;44164;44.954;10.068;2023-08-17T09:33:51;4.13;;;2.97;;
58360;SDS011;44164;44.954;10.068;2023-08-17T09:36:20;4.25;;;3.13;;
58360;SDS011;44164;44.954;10.068;2023-08-17T09:38:48;3.95;;;2.92;;
58360;SDS011;44164;44.954;10.068;2023-08-17T09:41:17;8.30;;;2.70;;
58360;SDS011;44164;44.954;10.068;2023-08-17T09:43:44;4.03;;;2.88;;
58360;SDS011;44164;44.954;10.068;2023-08-17T09:46:11;4.50;;;2.92;;
58360;SDS011;44164;44.954;10.068;2023-08-17T09:48:37;3.80;;;3.00;;
58360;SDS011;44164;44.954;10.068;2023-08-17T09:51:03;3.47;;;2.80;;
58360;SDS011;44164;44.954;10.068;2023-08-17T09:56:00;5.13;;;2.90;;
58360;SDS011;44164;44.954;10.068;2023-08-17T09:58:26;3.22;;;2.85;;
58360;SDS011;44164;44.954;10.068;2023-08-17T10:00:52;3.25;;;2.72;;
58360;SDS011;44164;44.954;10.068;2023-08-17T10:03:19;4.07;;;3.03;;
58360;SDS011;44164;44.954;10.068;2023-08-17T10:05:47;3.65;;;3.10;;
58360;SDS011;44164;44.954;10.068;2023-08-17T10:08:19;3.85;;;3.00;;
58360;SDS011;44164;44.954;10.068;2023-08-17T10:13:25;4.65;;;3.40;;
58360;SDS011;44164;44.954;10.068;2023-08-17T10:16:01;4.00;;;2.60;;
58360;SDS011;44164;44.954;10.068;2023-08-17T10:18:31;3.67;;;3.17;;
58360;SDS011;44164;44.954;10.068;2023-08-17T10:21:02;2.97;;;2.45;;
58360;SDS011;44164;44.954;10.068;2023-08-17T10:23:31;3.38;;;2.88;;
58360;SDS011;44164;44.954;10.068;2023-08-17T10:25:59;3.78;;;3.13;;
58360;SDS011;44164;44.954;10.068;2023-08-17T10:28:27;4.50;;;3.15;;
58360;SDS011;44164;44.954;10.068;2023-08-17T10:30:53;4.18;;;2.90;;
58360;SDS011;44164;44.954;10.068;2023-08-17T10:33:19;4.07;;;3.03;;
58360;SDS011;44164;44.954;10.068;2023-08-17T10:35:46;3.58;;;3.15;;
58360;SDS011;44164;44.954;10.068;2023-08-17T10:38:13;4.03;;;2.60;;
58360;SDS011;44164;44.954;10.068;2023-08-17T10:43:07;5.93;;;3.10;;
58360;SDS011;44164;44.954;10.068;2023-08-17T10:45:34;5.30;;;3.00;;
58360;SDS011;44164;44.954;10.068;2023-08-17T10:50:31;3.85;;;3.00;;
58360;SDS011;44164;44.954;10.068;2023-08-17T10:53:00;5.00;;;2.90;;
58360;SDS011;44164;44.954;10.068;2023-08-17T10:55:39;3.70;;;3.22;;
58360;SDS011;44164;44.954;10.068;2023-08-17T10:58:06;3.60;;;3.05;;
58360;SDS011;44164;44.954;10.068;2023-08-17T11:00:34;3.72;;;3.10;;
58360;SDS011;44164;44.954;10.068;2023-08-17T11:08:10;5.15;;;3.13;;
58360;SDS011;44164;44.954;10.068;2023-08-17T11:10:40;6.82;;;2.90;;
58360;SDS011;44164;44.954;10.068;2023-08-17T11:13:06;3.40;;;3.10;;
58360;SDS011;44164;44.954;10.068;2023-08-17T11:15:37;3.25;;;2.95;;
58360;SDS011;44164;44.954;10.068;2023-08-17T11:18:08;5.88;;;3.33;;
58360;SDS011;44164;44.954;10.068;2023-08-17T11:20:35;3.97;;;3.30;;
58360;SDS011;44164;44.954;10.068;2023-08-17T11:23:05;7.10;;;3.35;;
58360;SDS011;44164;44.954;10.068;2023-08-17T11:25:32;3.97;;;3.17;;
58360;SDS011;44164;44.954;10.068;2023-08-17T11:28:01;6.47;;;3.40;;
58360;SDS011;44164;44.954;10.068;2023-08-17T11:30:28;6.95;;;3.28;;
58360;SDS011;44164;44.954;10.068;2023-08-17T11:32:55;4.40;;;3.17;;
58360;SDS011;44164;44.954;10.068;2023-08-17T11:35:21;3.95;;;3.10;;
58360;SDS011;44164;44.954;10.068;2023-08-17T11:37:48;5.55;;;3.08;;
58360;SDS011;44164;44.954;10.068;2023-08-17T11:40:15;4.15;;;2.80;;
58360;SDS011;44164;44.954;10.068;2023-08-17T11:42:41;4.88;;;3.17;;
58360;SDS011;44164;44.954;10.068;2023-08-17T11:45:08;4.15;;;3.35;;
58360;SDS011;44164;44.954;10.068;2023-08-17T11:47:37;4.60;;;3.50;;
58360;SDS011;44164;44.954;10.068;2023-08-17T11:50:04;4.47;;;3.37;;
58360;SDS011;44164;44.954;10.068;2023-08-17T11:52:32;3.50;;;3.20;;
58360;SDS011;44164;44.954;10.068;2023-08-17T11:55:05;3.60;;;2.92;;
58360;SDS011;44164;44.954;10.068;2023-08-17T11:57:32;4.38;;;2.83;;
58360;SDS011;44164;44.954;10.068;2023-08-17T11:59:59;5.40;;;3.03;;
58360;SDS011;44164;44.954;10.068;2023-08-17T12:02:26;3.25;;;2.90;;
58360;SDS011;44164;44.954;10.068;2023-08-17T12:04:55;4.45;;;2.78;;
58360;SDS011;44164;44.954;10.068;2023-08-17T12:07:25;4.93;;;3.30;;
58360;SDS011;44164;44.954;10.068;2023-08-17T12:09:52;2.95;;;2.60;;
58360;SDS011;44164;44.954;10.068;2023-08-17T12:12:19;3.37;;;3.07;;
58360;SDS011;44164;44.954;10.068;2023-08-17T12:14:47;3.35;;;3.05;;
58360;SDS011;44164;44.954;10.068;2023-08-17T12:17:18;3.42;;;2.90;;
58360;SDS011;44164;44.954;10.068;2023-08-17T12:19:44;4.85;;;3.10;;
58360;SDS011;44164;44.954;10.068;2023-08-17T12:22:13;3.75;;;3.00;;
58360;SDS011;44164;44.954;10.068;2023-08-17T12:24:40;3.78;;;2.80;;
58360;SDS011;44164;44.954;10.068;2023-08-17T12:27:06;3.80;;;2.63;;
58360;SDS011;44164;44.954;10.068;2023-08-17T12:29:32;3.92;;;2.55;;
58360;SDS011;44164;44.954;10.068;2023-08-17T12:31:59;3.65;;;3.05;;
58360;SDS011;44164;44.954;10.068;2023-08-17T12:34:27;4.00;;;3.30;;
58360;SDS011;44164;44.954;10.068;2023-08-17T12:36:53;4.28;;;3.10;;
58360;SDS011;44164;44.954;10.068;2023-08-17T12:39:19;4.28;;;2.50;;
58360;SDS011;44164;44.954;10.068;2023-08-17T12:41:45;6.50;;;3.30;;
58360;SDS011;44164;44.954;10.068;2023-08-17T12:44:11;2.92;;;2.63;;
58360;SDS011;44164;44.954;10.068;2023-08-17T12:46:42;3.03;;;2.55;;
58360;SDS011;44164;44.954;10.068;2023-08-17T12:49:08;3.95;;;2.65;;
58360;SDS011;44164;44.954;10.068;2023-08-17T12:51:34;5.00;;;2.88;;
58360;SDS011;44164;44.954;10.068;2023-08-17T12:54:00;3.25;;;2.95;;
58360;SDS011;44164;44.954;10.068;2023-08-17T12:56:26;3.72;;;3.08;;
58360;SDS011;44164;44.954;10.068;2023-08-17T12:58:52;3.42;;;2.83;;
58360;SDS011;44164;44.954;10.068;2023-08-17T13:01:18;3.15;;;2.22;;
58360;SDS011;44164;44.954;10.068;2023-08-17T13:03:44;4.03;;;2.97;;
58360;SDS011;44164;44.954;10.068;2023-08-17T13:06:11;3.55;;;2.70;;
58360;SDS011;44164;44.954;10.068;2023-08-17T13:08:37;4.00;;;3.22;;
58360;SDS011;44164;44.954;10.068;2023-08-17T13:11:03;3.08;;;2.70;;
58360;SDS011;44164;44.954;10.068;2023-08-17T13:13:29;4.20;;;2.75;;
58360;SDS011;44164;44.954;10.068;2023-08-17T13:15:55;3.25;;;2.70;;
58360;SDS011;44164;44.954;10.068;2023-08-17T13:18:21;3.10;;;2.80;;
58360;SDS011;44164;44.954;10.068;2023-08-17T13:20:48;4.38;;;2.70;;
58360;SDS011;44164;44.954;10.068;2023-08-17T13:23:14;3.90;;;2.83;;
58360;SDS011;44164;44.954;10.068;2023-08-17T13:25:40;4.03;;;2.50;;
58360;SDS011;44164;44.954;10.068;2023-08-17T13:28:06;3.90;;;3.05;;
58360;SDS011;44164;44.954;10.068;2023-08-17T13:30:32;3.22;;;2.47;;
58360;SDS011;44164;44.954;10.068;2023-08-17T13:32:58;4.18;;;2.97;;
58360;SDS011;44164;44.954;10.068;2023-08-17T13:35:24;3.00;;;2.70;;
58360;SDS011;44164;44.954;10.068;2023-08-17T13:37:51;5.53;;;2.97;;
58360;SDS011;44164;44.954;10.068;2023-08-17T13:40:19;2.90;;;2.50;;
58360;SDS011;44164;44.954;10.068;2023-08-17T13:42:46;3.33;;;2.65;;
58360;SDS011;44164;44.954;10.068;2023-08-17T13:45:12;5.80;;;2.63;;
58360;SDS011;44164;44.954;10.068;2023-08-17T13:47:38;4.10;;;2.45;;
58360;SDS011;44164;44.954;10.068;2023-08-17T13:50:05;4.40;;;2.50;;
58360;SDS011;44164;44.954;10.068;2023-08-17T13:52:31;3.63;;;2.58;;
58360;SDS011;44164;44.954;10.068;2023-08-17T13:54:57;3.58;;;2.28;;
58360;SDS011;44164;44.954;10.068;2023-08-17T13:57:23;8.43;;;3.20;;
58360;SDS011;44164;44.954;10.068;2023-08-17T13:59:49;4.28;;;2.55;;
58360;SDS011;44164;44.954;10.068;2023-08-17T14:02:16;3.95;;;3.08;;
58360;SDS011;44164;44.954;10.068;2023-08-17T14:04:42;4.68;;;2.80;;
58360;SDS011;44164;44.954;10.068;2023-08-17T14:07:08;4.55;;;2.85;;
58360;SDS011;44164;44.954;10.068;2023-08-17T14:09:34;3.33;;;2.80;;
58360;SDS011;44164;44.954;10.068;2023-08-17T14:12:00;3.30;;;2.85;;
58360;SDS011;44164;44.954;10.068;2023-08-17T14:14:27;3.90;;;2.77;;
58360;SDS011;44164;44.954;10.068;2023-08-17T14:16:53;3.67;;;2.70;;
58360;SDS011;44164;44.954;10.068;2023-08-17T14:19:20;5.97;;;2.75;;
58360;SDS011;44164;44.954;10.068;2023-08-17T14:21:46;3.80;;;2.42;;
58360;SDS011;44164;44.954;10.068;2023-08-17T14:24:12;4.75;;;2.72;;
58360;SDS011;44164;44.954;10.068;2023-08-17T14:26:38;3.13;;;2.35;;
58360;SDS011;44164;44.954;10.068;2023-08-17T14:29:04;5.05;;;2.45;;
58360;SDS011;44164;44.954;10.068;2023-08-17T14:31:30;4.28;;;2.47;;
58360;SDS011;44164;44.954;10.068;2023-08-17T14:33:57;3.20;;;2.22;;
58360;SDS011;44164;44.954;10.068;2023-08-17T14:36:23;4.57;;;2.95;;
58360;SDS011;44164;44.954;10.068;2023-08-17T14:38:49;3.78;;;2.63;;
58360;SDS011;44164;44.954;10.068;2023-08-17T14:41:15;2.90;;;2.55;;
58360;SDS011;44164;44.954;10.068;2023-08-17T14:43:41;3.65;;;2.25;;
58360;SDS011;44164;44.954;10.068;2023-08-17T14:46:07;3.65;;;2.42;;
58360;SDS011;44164;44.954;10.068;2023-08-17T14:48:33;6.75;;;2.97;;
58360;SDS011;44164;44.954;10.068;2023-08-17T14:51:00;2.75;;;2.38;;
58360;SDS011;44164;44.954;10.068;2023-08-17T14:53:26;4.28;;;2.30;;
58360;SDS011;44164;44.954;10.068;2023-08-17T14:55:52;4.20;;;2.17;;